Time;durP1;ratioP1;P1;durP2;ratioP2;P2;SDS_P1;SDS_P2;PMS_P1;PMS_P2;Temp;Humidity;BMP_temperature;BMP_pressure;BME280_temperature;BME280_humidity;BME280_pressure;Samples;Min_cycle;Max_cycle;Signal;HPM_P1;HPM_P2
2021/03/19 00:02:14;;;;;;;;;;;;;;;-0.42;100.00;101125.44;5072808;28;20802;-74
2021/03/19 00:04:40;;;;;;;;;;;;;;;-0.31;100.00;101129.59;5072689;28;19924;-71
2021/03/19 00:07:06;;;;;;;;;;;;;;;-0.20;100.00;101127.47;5072348;28;19946;-73
2021/03/19 00:09:32;;;;;;;;;;;;;;;-0.10;100.00;101125.41;5054802;28;19928;-72
2021/03/19 00:11:59;;;;;;;;;;;;;;;-0.04;100.00;101131.44;5072298;28;19928;-72
2021/03/19 00:14:25;;;;;;;;;;;;;;;0.02;100.00;101125.03;5072381;28;19936;-73
2021/03/19 00:16:50;;;;;;;;;;;;;;;0.05;100.00;101122.25;5072110;28;19928;-73
2021/03/19 00:19:18;;;;;;;;;;;;;;;0.05;100.00;101124.94;5072245;28;19924;-73
2021/03/19 00:21:44;;;;;;;;;;;;;;;0.10;100.00;101131.00;5072427;28;19978;-73
2021/03/19 00:24:10;;;;;;;;;;;;;;;0.13;100.00;101128.25;5054341;28;19939;-73
2021/03/19 00:26:35;;;;;;;;;;;;;;;0.18;100.00;101129.91;5072102;28;19925;-73
2021/03/19 00:29:02;;;;;;;;;;;;;;;0.21;100.00;101137.81;5071970;28;20023;-73
2021/03/19 00:31:28;;;;;;;;;;;;;;;0.21;100.00;101143.16;5071942;28;20306;-73
2021/03/19 00:33:54;;;;;;;;;;;;;;;0.23;100.00;101143.97;5072081;28;19925;-73
2021/03/19 00:36:20;;;;;;;;;;;;;;;0.24;100.00;101132.38;5071935;28;19935;-73
2021/03/19 00:38:46;;;;;;;;;;;;;;;0.23;100.00;101133.28;5071944;28;19978;-73
2021/03/19 00:41:12;;;;;;;;;;;;;;;0.20;100.00;101144.06;5072081;28;19982;-73
2021/03/19 00:43:38;;;;;;;;;;;;;;;0.18;100.00;101135.25;5071876;28;19924;-73
2021/03/19 00:46:04;;;;;;;;;;;;;;;0.15;100.00;101145.09;5071444;28;20381;-73
2021/03/19 00:48:30;;;;;;;;;;;;;;;0.13;100.00;101154.97;5071880;28;19929;-73
2021/03/19 00:50:56;;;;;;;;;;;;;;;0.12;100.00;101153.22;5071802;28;19970;-73
2021/03/19 00:53:22;;;;;;;;;;;;;;;0.14;100.00;101162.03;5071822;28;19971;-73
2021/03/19 00:55:48;;;;;;;;;;;;;;;0.17;100.00;101163.72;5071627;28;19924;-73
2021/03/19 00:58:14;;;;;;;;;;;;;;;0.19;100.00;101167.25;5071486;28;19967;-73
2021/03/19 01:00:40;;;;;;;;;;;;;;;0.21;100.00;101156.50;5053729;28;19924;-73
2021/03/19 01:03:07;;;;;;;;;;;;;;;0.20;100.00;101154.75;5071273;28;20049;-73
2021/03/19 01:05:34;;;;;;;;;;;;;;;0.16;100.00;101160.19;5053340;28;19928;-73
2021/03/19 01:08:00;;;;;;;;;;;;;;;0.18;100.00;101157.47;5071342;28;19924;-73
2021/03/19 01:10:27;;;;;;;;;;;;;;;0.20;100.00;101160.09;5071620;28;19947;-73
2021/03/19 01:12:53;;;;;;;;;;;;;;;0.07;100.00;101154.28;5078461;28;20298;-73
2021/03/19 01:15:19;;;;;;;;;;;;;;;-0.01;100.00;101166.03;5091675;28;19977;-73
2021/03/19 01:17:45;;;;;;;;;;;;;;;-0.10;100.00;101165.47;5091396;28;20026;-73
2021/03/19 01:20:13;;;;;;;;;;;;;;;-0.15;100.00;101167.38;5091361;28;19977;-73
2021/03/19 01:22:39;;;;;;;;;;;;;;;-0.25;100.00;101169.47;5091528;28;19942;-73
2021/03/19 01:25:05;;;;;;;;;;;;;;;-0.39;100.00;101167.16;5091587;28;19924;-73
2021/03/19 01:27:31;;;;;;;;;;;;;;;-0.48;100.00;101172.75;5091222;28;19967;-73
2021/03/19 01:29:57;;;;;;;;;;;;;;;-0.54;100.00;101166.69;5091456;28;19966;-73
2021/03/19 01:32:23;;;;;;;;;;;;;;;-0.51;100.00;101163.06;5091504;28;19970;-73
2021/03/19 01:34:49;;;;;;;;;;;;;;;-0.49;100.00;101160.34;5091585;28;20015;-73
2021/03/19 01:37:15;;;;;;;;;;;;;;;-0.48;100.00;101151.41;5073208;28;20085;-73
2021/03/19 01:39:41;;;;;;;;;;;;;;;-0.44;100.00;101164.66;5091015;28;19971;-73
2021/03/19 01:42:08;;;;;;;;;;;;;;;-0.42;100.00;101164.59;5091470;28;19931;-73
2021/03/19 01:44:35;;;;;;;;;;;;;;;-0.40;100.00;101171.63;5091412;28;19924;-73
2021/03/19 01:47:22;;;;;;;;;;;;;;;-0.40;100.00;101162.75;5073065;28;19924;-73
2021/03/19 01:50:06;;;;;;;;;;;;;;;-0.40;100.00;101166.31;5091382;28;19928;-73
2021/03/19 01:52:51;;;;;;;;;;;;;;;-0.41;100.00;101166.34;5091400;28;19924;-73
2021/03/19 01:55:35;;;;;;;;;;;;;;;-0.44;100.00;101166.41;5091197;28;19924;-73
2021/03/19 01:58:19;;;;;;;;;;;;;;;-0.50;100.00;101170.16;5091060;28;20274;-73
2021/03/19 02:01:03;;;;;;;;;;;;;;;-0.55;100.00;101172.06;5091033;28;19970;-73
2021/03/19 02:03:48;;;;;;;;;;;;;;;-0.62;100.00;101174.03;5087756;28;19978;-73
2021/03/19 02:06:32;;;;;;;;;;;;;;;-0.68;100.00;101180.41;5070679;28;19994;-73
2021/03/19 02:09:17;;;;;;;;;;;;;;;-0.81;100.00;101175.47;5070781;28;19924;-73
2021/03/19 02:12:00;;;;;;;;;;;;;;;-0.95;100.00;101166.03;5073241;28;20343;-73
2021/03/19 02:14:45;;;;;;;;;;;;;;;-1.11;100.00;101178.88;5046126;28;20544;-73
2021/03/19 02:17:29;;;;;;;;;;;;;;;-1.19;100.00;101172.84;5074458;28;19932;-73
2021/03/19 02:20:14;;;;;;;;;;;;;;;-1.21;100.00;101172.03;5056716;28;19924;-73
2021/03/19 02:22:58;;;;;;;;;;;;;;;-1.15;100.00;101171.84;5074526;28;19928;-73
2021/03/19 02:25:43;;;;;;;;;;;;;;;-1.08;100.00;101183.22;5074639;28;19924;-73
2021/03/19 02:28:27;;;;;;;;;;;;;;;-0.99;100.00;101185.66;5056434;28;20560;-73
2021/03/19 02:31:11;;;;;;;;;;;;;;;-0.90;100.00;101184.56;5074127;28;19928;-73
2021/03/19 02:33:41;;;;;;;;;;;;;;;-0.81;100.00;101180.78;5074258;28;20386;-73
2021/03/19 02:36:08;;;;;;;;;;;;;;;-0.74;100.00;101187.69;5074011;28;19932;-73
2021/03/19 02:38:34;;;;;;;;;;;;;;;-0.66;100.00;101190.16;5056225;28;19924;-73
2021/03/19 02:41:00;;;;;;;;;;;;;;;-0.61;100.00;101193.59;5056307;28;19936;-73
2021/03/19 02:43:26;;;;;;;;;;;;;;;-0.57;100.00;101192.56;5074305;28;20027;-73
2021/03/19 02:45:52;;;;;;;;;;;;;;;-0.52;100.00;101193.34;5056143;28;20329;-73
2021/03/19 02:48:19;;;;;;;;;;;;;;;-0.49;100.00;101193.25;5073876;28;19924;-73
2021/03/19 02:50:45;;;;;;;;;;;;;;;-0.51;100.00;101195.94;5056209;28;19947;-73
2021/03/19 02:53:12;;;;;;;;;;;;;;;-0.54;100.00;101198.69;5074137;28;20043;-73
2021/03/19 02:55:38;;;;;;;;;;;;;;;-0.55;100.00;101198.72;5073967;28;19924;-73
2021/03/19 02:58:04;;;;;;;;;;;;;;;-0.57;100.00;101201.44;5073904;28;19931;-73
2021/03/19 03:00:30;;;;;;;;;;;;;;;-0.58;100.00;101202.34;5073951;28;19930;-73
2021/03/19 03:02:56;;;;;;;;;;;;;;;-0.61;100.00;101210.44;5074007;28;20021;-73
2021/03/19 03:05:21;;;;;;;;;;;;;;;-0.64;100.00;101199.88;5073976;28;19935;-73
2021/03/19 03:07:48;;;;;;;;;;;;;;;-0.75;100.00;101197.50;5073388;28;19930;-72
2021/03/19 03:10:16;;;;;;;;;;;;;;;-0.87;100.00;101212.03;5073741;28;20344;-72
2021/03/19 03:12:42;;;;;;;;;;;;;;;-0.98;100.00;101206.06;5073765;28;19954;-72
2021/03/19 03:15:10;;;;;;;;;;;;;;;-1.07;100.00;101209.88;5073651;28;20279;-72
2021/03/19 03:17:36;;;;;;;;;;;;;;;-1.17;100.00;101207.47;5074501;28;19924;-72
2021/03/19 03:20:03;;;;;;;;;;;;;;;-1.27;100.00;101210.34;5092932;28;19954;-72
2021/03/19 03:22:29;;;;;;;;;;;;;;;-1.34;100.00;101214.06;5092400;28;19954;-72
2021/03/19 03:24:55;;;;;;;;;;;;;;;-1.35;100.00;101222.97;5093548;28;19924;-72
2021/03/19 03:27:21;;;;;;;;;;;;;;;-1.32;100.00;101214.91;5093099;28;19956;-72
2021/03/19 03:29:47;;;;;;;;;;;;;;;-1.27;100.00;101215.69;5093670;28;19924;-72
2021/03/19 03:32:13;;;;;;;;;;;;;;;-1.21;100.00;101222.66;5093570;28;19932;-73
2021/03/19 03:34:39;;;;;;;;;;;;;;;-1.15;100.00;101216.28;5093590;28;20370;-72
2021/03/19 03:37:05;;;;;;;;;;;;;;;-1.11;100.00;101215.28;5093320;28;19963;-72
2021/03/19 03:39:32;;;;;;;;;;;;;;;-1.11;100.00;101213.53;5093445;28;20356;-72
2021/03/19 03:41:59;;;;;;;;;;;;;;;-1.09;100.00;101229.47;5093200;28;19924;-72
2021/03/19 03:44:25;;;;;;;;;;;;;;;-1.09;100.00;101218.81;5093154;28;20297;-72
2021/03/19 03:46:51;;;;;;;;;;;;;;;-1.06;100.00;101224.91;5092825;28;19924;-72
2021/03/19 03:49:18;;;;;;;;;;;;;;;-1.02;100.00;101226.63;5093092;28;19924;-72
2021/03/19 03:51:45;;;;;;;;;;;;;;;-0.97;100.00;101237.16;5093384;28;19924;-72
2021/03/19 03:54:11;;;;;;;;;;;;;;;-0.94;100.00;101239.72;5093327;28;19974;-72
2021/03/19 03:56:37;;;;;;;;;;;;;;;-0.88;100.00;101242.25;5092931;28;19928;-72
2021/03/19 03:59:05;;;;;;;;;;;;;;;-0.80;100.00;101241.16;5092956;28;19950;-72
2021/03/19 04:01:31;;;;;;;;;;;;;;;-0.85;100.00;101239.50;5093051;28;19931;-72
2021/03/19 04:03:57;;;;;;;;;;;;;;;-0.80;100.00;101238.50;5085756;28;19987;-73
2021/03/19 04:06:23;;;;;;;;;;;;;;;-0.81;100.00;101248.31;5072419;28;19924;-73
2021/03/19 04:08:49;;;;;;;;;;;;;;;-0.75;100.00;101244.59;5072515;28;19974;-72
2021/03/19 04:11:16;;;;;;;;;;;;;;;-0.75;100.00;101249.94;5072479;28;19932;-72
2021/03/19 04:13:42;;;;;;;;;;;;;;;-0.75;100.00;101247.25;5072387;28;19924;-72
2021/03/19 04:16:09;;;;;;;;;;;;;;;-0.71;100.00;101248.94;5072283;28;19978;-72
2021/03/19 04:18:35;;;;;;;;;;;;;;;-0.75;100.00;101247.25;5072427;28;20490;-72
2021/03/19 04:21:06;;;;;;;;;;;;;;;-0.79;100.00;101250.91;5072387;28;19931;-72
2021/03/19 04:23:32;;;;;;;;;;;;;;;-0.77;100.00;101252.63;5072230;28;19931;-72
2021/03/19 04:25:59;;;;;;;;;;;;;;;-0.77;100.00;101251.78;5071811;28;19928;-72
2021/03/19 04:28:28;;;;;;;;;;;;;;;-0.80;100.00;101263.41;5072118;28;19929;-72
2021/03/19 04:30:54;;;;;;;;;;;;;;;-0.79;100.00;101262.44;5072101;28;19925;-72
2021/03/19 04:33:22;;;;;;;;;;;;;;;-0.87;100.00;101262.66;5071620;28;19931;-72
2021/03/19 04:35:50;;;;;;;;;;;;;;;-0.90;100.00;101262.72;5071908;28;19931;-72
2021/03/19 04:38:17;;;;;;;;;;;;;;;-0.95;100.00;101261.09;5053971;28;20366;-72
2021/03/19 04:40:44;;;;;;;;;;;;;;;-0.96;100.00;101268.22;5071731;28;19928;-72
2021/03/19 04:43:10;;;;;;;;;;;;;;;-0.98;100.00;101271.84;5071861;28;19931;-72
2021/03/19 04:45:37;;;;;;;;;;;;;;;-0.97;100.00;101270.94;5071726;28;19925;-72
2021/03/19 04:48:03;;;;;;;;;;;;;;;-1.00;100.00;101277.22;5071683;28;19925;-72
2021/03/19 04:50:29;;;;;;;;;;;;;;;-0.98;100.00;101266.50;5071766;28;20016;-72
2021/03/19 04:52:55;;;;;;;;;;;;;;;-0.98;100.00;101279.84;5071630;28;19932;-72
2021/03/19 04:55:21;;;;;;;;;;;;;;;-0.97;100.00;101277.13;5071713;28;19924;-73
2021/03/19 04:57:47;;;;;;;;;;;;;;;-0.95;100.00;101272.66;5071472;28;19925;-73
2021/03/19 05:00:14;;;;;;;;;;;;;;;-0.99;100.00;101268.28;5053300;28;20572;-73
2021/03/19 05:02:41;;;;;;;;;;;;;;;-0.99;100.00;101268.28;5068792;28;19925;-73
2021/03/19 05:05:08;;;;;;;;;;;;;;;-0.98;100.00;101270.03;5052274;28;19929;-73
2021/03/19 05:07:35;;;;;;;;;;;;;;;-0.98;100.00;101271.84;5045080;28;19924;-73
2021/03/19 05:10:01;;;;;;;;;;;;;;;-0.97;100.00;101276.28;5070684;28;19932;-72
2021/03/19 05:12:27;;;;;;;;;;;;;;;-0.94;100.00;101277.03;5053474;28;20373;-72
2021/03/19 05:14:53;;;;;;;;;;;;;;;-0.91;100.00;101273.44;5053777;28;19988;-72
2021/03/19 05:17:18;;;;;;;;;;;;;;;-0.88;100.00;101284.91;5058232;28;19984;-72
2021/03/19 05:19:44;;;;;;;;;;;;;;;-0.85;100.00;101291.94;5070707;28;20337;-71
2021/03/19 05:22:10;;;;;;;;;;;;;;;-0.83;100.00;101290.09;5071326;28;20357;-73
2021/03/19 05:24:37;;;;;;;;;;;;;;;-0.82;100.00;101291.88;5056720;28;19936;-73
2021/03/19 05:27:03;;;;;;;;;;;;;;;-0.80;100.00;101292.72;5050923;28;20413;-72
2021/03/19 05:29:29;;;;;;;;;;;;;;;-0.85;100.00;101289.28;5052253;28;19925;-72
2021/03/19 05:31:55;;;;;;;;;;;;;;;-0.85;100.00;101287.47;5067633;28;20011;-73
2021/03/19 05:34:21;;;;;;;;;;;;;;;-0.85;100.00;101284.81;5039634;28;20035;-72
2021/03/19 05:36:47;;;;;;;;;;;;;;;-0.83;100.00;101281.25;5032951;28;20322;-73
2021/03/19 05:39:12;;;;;;;;;;;;;;;-0.87;100.00;101286.66;5057032;28;20409;-73
2021/03/19 05:41:41;;;;;;;;;;;;;;;-0.89;100.00;101290.28;5071019;28;19929;-73
2021/03/19 05:44:08;;;;;;;;;;;;;;;-0.91;100.00;101287.66;5065857;28;20539;-73
2021/03/19 05:46:36;;;;;;;;;;;;;;;-0.89;100.00;101295.59;5053177;28;19951;-73
2021/03/19 05:49:03;;;;;;;;;;;;;;;-0.87;100.00;101300.00;5067899;28;19931;-73
2021/03/19 05:51:31;;;;;;;;;;;;;;;-0.82;100.00;101305.19;5075215;28;20084;-73
2021/03/19 05:53:58;;;;;;;;;;;;;;;-0.88;100.00;101302.69;5062825;28;19975;-73
2021/03/19 05:56:26;;;;;;;;;;;;;;;-0.91;100.00;101303.66;5054947;28;19928;-73
2021/03/19 05:58:52;;;;;;;;;;;;;;;-0.90;100.00;101300.03;5067490;28;19924;-73
2021/03/19 06:01:18;;;;;;;;;;;;;;;-0.84;100.00;101309.72;5082846;28;19931;-73
2021/03/19 06:03:45;;;;;;;;;;;;;;;-0.79;100.00;101318.44;5074624;28;19932;-72
2021/03/19 06:06:12;;;;;;;;;;;;;;;-0.80;100.00;101316.72;5074457;28;19970;-73
2021/03/19 06:08:38;;;;;;;;;;;;;;;-0.77;100.00;101318.44;5073681;28;19928;-73
2021/03/19 06:11:13;;;;;;;;;;;;;;;-0.75;100.00;101322.81;5073898;28;20271;-73
2021/03/19 06:13:44;;;;;;;;;;;;;;;-0.75;100.00;101325.47;5056068;28;19925;-73
2021/03/19 06:16:19;;;;;;;;;;;;;;;-0.72;100.00;101317.41;5066571;28;20011;-73
2021/03/19 06:18:46;;;;;;;;;;;;;;;-0.71;100.00;101329.81;5054345;28;19925;-73
2021/03/19 06:21:20;;;;;;;;;;;;;;;-0.68;100.00;101334.19;5073828;28;19979;-73
2021/03/19 06:23:59;;;;;;;;;;;;;;;-0.65;100.00;101328.78;5074488;28;19929;-73
2021/03/19 06:26:26;;;;;;;;;;;;;;;-0.45;100.00;101330.09;5054333;28;19947;-73
2021/03/19 06:29:03;;;;;;;;;;;;;;;-0.21;100.00;101329.41;5054251;28;19925;-73
2021/03/19 06:31:31;;;;;;;;;;;;;;;0.16;100.00;101330.19;5058954;28;19959;-73
2021/03/19 06:34:05;;;;;;;;;;;;;;;0.48;100.00;101337.31;5073640;28;19931;-74
2021/03/19 06:36:32;;;;;;;;;;;;;;;0.76;100.00;101336.47;5054229;28;19968;-73
2021/03/19 06:39:06;;;;;;;;;;;;;;;0.87;100.00;101335.25;5054071;28;20390;-75
2021/03/19 06:41:33;;;;;;;;;;;;;;;0.78;100.00;101344.44;5069534;28;19966;-74
2021/03/19 06:44:15;;;;;;;;;;;;;;;0.98;100.00;101343.81;5051826;28;19925;-73
2021/03/19 06:46:43;;;;;;;;;;;;;;;1.22;100.00;101342.16;5071631;28;20412;-73
2021/03/19 06:49:09;;;;;;;;;;;;;;;1.36;100.00;101344.38;5069997;28;19925;-73
2021/03/19 06:51:37;;;;;;;;;;;;;;;1.43;100.00;101348.63;5032873;28;19971;-74
2021/03/19 06:54:04;;;;;;;;;;;;;;;1.47;100.00;101352.94;5035895;28;19925;-73
2021/03/19 06:56:30;;;;;;;;;;;;;;;1.58;100.00;101357.94;5053376;28;19978;-73
2021/03/19 06:58:56;;;;;;;;;;;;;;;1.67;100.00;101360.28;5071635;28;19925;-73
2021/03/19 07:01:30;;;;;;;;;;;;;;;1.64;100.00;101368.44;5055781;28;19931;-73
2021/03/19 07:04:23;;;;;;;;;;;;;;;1.62;100.00;101369.41;5054080;28;19925;-73
2021/03/19 07:07:03;;;;;;;;;;;;;;;1.54;100.00;101366.09;5040265;28;20350;-73
2021/03/19 07:09:45;;;;;;;;;;;;;;;1.62;100.00;101367.59;5057478;28;19933;-74
2021/03/19 07:12:19;;;;;;;;;;;;;;;1.67;100.00;101370.09;5073771;28;19924;-72
2021/03/19 07:14:56;;;;;;;;;;;;;;;1.70;100.00;101364.66;5068732;28;20041;-73
2021/03/19 07:17:36;;;;;;;;;;;;;;;1.74;100.00;101379.69;5053283;28;19925;-73
2021/03/19 07:20:08;;;;;;;;;;;;;;;1.75;100.00;101375.22;5060406;28;20080;-72
2021/03/19 07:22:42;;;;;;;;;;;;;;;1.92;100.00;101371.97;5073556;28;19958;-72
2021/03/19 07:25:19;;;;;;;;;;;;;;;2.04;100.00;101374.19;5066907;28;19970;-72
2021/03/19 07:27:59;;;;;;;;;;;;;;;2.15;100.00;101385.41;5075835;28;20019;-73
2021/03/19 07:30:28;;;;;;;;;;;;;;;2.39;100.00;101377.41;5074553;28;19931;-72
2021/03/19 07:33:14;;;;;;;;;;;;;;;2.44;100.00;101378.13;5073159;28;19951;-73
2021/03/19 07:35:47;;;;;;;;;;;;;;;2.24;100.00;101384.19;5069296;28;19925;-73
2021/03/19 07:38:32;;;;;;;;;;;;;;;2.16;100.00;101388.97;5073011;28;20011;-73
2021/03/19 07:41:02;;;;;;;;;;;;;;;2.18;100.00;101392.47;5058876;28;20036;-73
2021/03/19 07:43:38;;;;;;;;;;;;;;;2.33;100.00;101389.22;5052686;28;20366;-73
2021/03/19 07:46:14;;;;;;;;;;;;;;;2.50;100.00;101395.81;5063417;28;20027;-72
2021/03/19 07:48:47;;;;;;;;;;;;;;;2.58;100.00;101401.75;5070732;28;20036;-72
2021/03/19 07:51:22;;;;;;;;;;;;;;;2.31;100.00;101396.47;5073157;28;19928;-73
2021/03/19 07:53:55;;;;;;;;;;;;;;;2.27;100.00;101404.66;5054219;28;19925;-75
2021/03/19 07:56:28;;;;;;;;;;;;;;;1.99;100.00;101398.47;5054644;28;20301;-74
2021/03/19 07:58:57;;;;;;;;;;;;;;;1.93;100.00;101403.16;5072032;28;19935;-73
2021/03/19 08:01:27;;;;;;;;;;;;;;;1.75;100.00;101402.88;5058572;28;19925;-73
2021/03/19 08:03:56;;;;;;;;;;;;;;;1.57;100.00;101403.47;5060067;28;19924;-73
2021/03/19 08:06:27;;;;;;;;;;;;;;;1.48;100.00;101410.88;5075562;28;19978;-75
2021/03/19 08:08:58;;;;;;;;;;;;;;;1.39;100.00;101421.88;5073691;28;19931;-72
2021/03/19 08:11:29;;;;;;;;;;;;;;;1.25;100.00;101416.09;5050983;28;19924;-73
2021/03/19 08:14:25;;;;;;;;;;;;;;;1.15;100.00;101420.84;5082106;28;19924;-73
2021/03/19 08:16:56;;;;;;;;;;;;;;;0.93;100.00;101417.94;5085193;28;19924;-73
2021/03/19 08:19:26;;;;;;;;;;;;;;;0.79;100.00;101427.25;5087398;28;19933;-74
2021/03/19 08:21:56;;;;;;;;;;;;;;;0.73;100.00;101430.09;5079977;28;19924;-71
2021/03/19 08:24:39;;;;;;;;;;;;;;;0.78;100.00;101438.00;5066528;28;20464;-74
2021/03/19 08:27:11;;;;;;;;;;;;;;;0.94;100.00;101441.09;5070812;28;20412;-73
2021/03/19 08:29:41;;;;;;;;;;;;;;;1.08;100.00;101443.34;5071662;28;20242;-71
2021/03/19 08:32:16;;;;;;;;;;;;;;;1.16;100.00;101454.69;5082874;28;19924;-74
2021/03/19 08:34:44;;;;;;;;;;;;;;;1.05;100.00;101451.47;5055034;28;19931;-74
2021/03/19 08:37:26;;;;;;;;;;;;;;;1.07;100.00;101450.50;5071174;28;19929;-74
2021/03/19 08:39:52;;;;;;;;;;;;;;;1.11;100.00;101453.94;5071191;28;19925;-74
2021/03/19 08:42:21;;;;;;;;;;;;;;;1.23;100.00;101458.03;5071721;28;19929;-72
2021/03/19 08:44:47;;;;;;;;;;;;;;;1.36;100.00;101454.06;5042937;28;20314;-72
2021/03/19 08:47:17;;;;;;;;;;;;;;;1.40;100.00;101458.41;5064783;28;20559;-73
2021/03/19 08:49:44;;;;;;;;;;;;;;;1.48;100.00;101455.47;5063620;28;19924;-71
2021/03/19 08:52:28;;;;;;;;;;;;;;;1.63;100.00;101462.13;5091265;28;19951;-73
2021/03/19 09:06:19;;;;;;;;;;;;;;;2.31;100.00;101465.25;5060461;28;19941;-65
2021/03/19 09:08:59;;;;;;;;;;;;;;;2.62;100.00;101458.78;5067250;28;19940;-66
2021/03/19 09:11:45;;;;;;;;;;;;;;;2.84;100.00;101465.09;5086712;28;19978;-64
2021/03/19 09:14:34;;;;;;;;;;;;;;;3.25;100.00;101471.66;5064928;28;19925;-64
2021/03/19 09:16:59;;;;;;;;;;;;;;;2.95;100.00;101463.84;5064210;28;19924;-64
2021/03/19 09:19:49;;;;;;;;;;;;;;;2.61;100.00;101473.13;5070471;28;19977;-64
2021/03/19 09:22:45;;;;;;;;;;;;;;;2.27;100.00;101471.63;5064905;28;19925;-63
2021/03/19 09:25:34;;;;;;;;;;;;;;;2.18;100.00;101476.38;5054421;28;19932;-64
2021/03/19 09:28:17;;;;;;;;;;;;;;;2.33;100.00;101484.84;5058677;28;19931;-63
2021/03/19 09:30:46;;;;;;;;;;;;;;;2.92;100.00;101486.28;5066427;28;19978;-64
2021/03/19 09:33:32;;;;;;;;;;;;;;;3.65;100.00;101484.38;5070824;28;20289;-64
2021/03/19 09:35:58;;;;;;;;;;;;;;;4.15;100.00;101477.84;5070364;28;20305;-64
2021/03/19 09:38:39;;;;;;;;;;;;;;;4.00;100.00;101474.00;5070585;28;19925;-64
2021/03/19 09:41:05;;;;;;;;;;;;;;;3.63;100.00;101488.06;5071025;28;19924;-64
2021/03/19 09:43:49;;;;;;;;;;;;;;;3.28;100.00;101493.00;5071180;28;19925;-64
2021/03/19 09:46:21;;;;;;;;;;;;;;;2.83;100.00;101497.34;5070947;28;20386;-64
2021/03/19 09:48:52;;;;;;;;;;;;;;;2.49;100.00;101496.75;5070682;28;19924;-64
2021/03/19 09:51:38;;;;;;;;;;;;;;;2.54;100.00;101493.94;5053343;28;20304;-64
2021/03/19 09:54:22;;;;;;;;;;;;;;;2.71;100.00;101500.47;5068815;28;20579;-65
2021/03/19 09:56:48;;;;;;;;;;;;;;;2.98;100.00;101504.84;5070651;28;19931;-64
2021/03/19 09:59:18;;;;;;;;;;;;;;;3.15;100.00;101503.31;5069969;28;20469;-64
2021/03/19 10:01:45;;;;;;;;;;;;;;;3.22;100.00;101496.81;5070753;28;19931;-64
2021/03/19 10:04:13;;;;;;;;;;;;;;;3.36;100.00;101498.94;5064194;28;20301;-64
2021/03/19 10:06:44;;;;;;;;;;;;;;;3.78;100.00;101487.47;5070890;28;19934;-64
2021/03/19 10:09:12;;;;;;;;;;;;;;;5.15;100.00;101487.84;5070370;28;19935;-65
2021/03/19 10:11:50;;;;;;;;;;;;;;;6.73;100.00;101470.16;5069903;28;20392;-65
2021/03/19 10:14:25;;;;;;;;;;;;;;;6.75;100.00;101467.38;5067085;28;20292;-65
2021/03/19 10:17:03;;;;;;;;;;;;;;;5.89;100.00;101478.91;5051980;28;20071;-64
2021/03/19 10:19:33;;;;;;;;;;;;;;;5.31;100.00;101482.59;5045315;28;19924;-65
2021/03/19 10:21:59;;;;;;;;;;;;;;;4.64;100.00;101476.69;5050445;28;19931;-64
2021/03/19 10:24:26;;;;;;;;;;;;;;;4.21;100.00;101476.75;5069064;28;19952;-66
2021/03/19 10:26:55;;;;;;;;;;;;;;;3.80;100.00;101488.25;5070512;28;19924;-66
2021/03/19 10:29:23;;;;;;;;;;;;;;;3.47;100.00;101485.97;5058456;28;19924;-66
2021/03/19 10:31:51;;;;;;;;;;;;;;;2.98;100.00;101491.44;5062063;28;19994;-66
2021/03/19 10:34:26;;;;;;;;;;;;;;;3.17;100.00;101494.28;5066536;28;19928;-66
2021/03/19 10:36:54;;;;;;;;;;;;;;;4.40;100.00;101490.25;5074031;28;19925;-66
2021/03/19 10:39:25;;;;;;;;;;;;;;;5.23;100.00;101485.66;5072230;28;19932;-66
2021/03/19 10:41:53;;;;;;;;;;;;;;;5.31;100.00;101490.69;5055872;28;19964;-66
2021/03/19 10:44:21;;;;;;;;;;;;;;;4.92;100.00;101497.81;5054007;28;19928;-66
2021/03/19 10:46:51;;;;;;;;;;;;;;;4.44;100.00;101491.00;5063458;28;20309;-66
2021/03/19 10:49:19;;;;;;;;;;;;;;;4.15;100.00;101490.41;5069603;28;20086;-64
2021/03/19 10:51:49;;;;;;;;;;;;;;;3.90;100.00;101496.81;5072082;28;19933;-65
2021/03/19 10:54:18;;;;;;;;;;;;;;;5.60;100.00;101496.47;5062174;28;20027;-65
2021/03/19 10:56:46;;;;;;;;;;;;;;;6.61;100.00;101492.41;5071041;28;19977;-66
2021/03/19 10:59:13;;;;;;;;;;;;;;;7.70;100.00;101483.72;5068801;28;19924;-68
2021/03/19 11:01:43;;;;;;;;;;;;;;;7.98;100.00;101483.97;5055422;28;19968;-66
2021/03/19 11:04:27;;;;;;;;;;;;;;;6.70;100.00;101490.06;5055157;28;19932;-66
2021/03/19 11:06:54;;;;;;;;;;;;;;;6.01;100.00;101499.91;5083392;28;20385;-66
2021/03/19 11:09:23;;;;;;;;;;;;;;;5.92;100.00;101503.03;5037611;28;19978;-67
2021/03/19 11:11:50;;;;;;;;;;;;;;;5.25;100.00;101504.41;5053506;28;19986;-67
2021/03/19 11:14:18;;;;;;;;;;;;;;;5.52;100.00;101505.81;5035861;28;19996;-67
2021/03/19 11:16:45;;;;;;;;;;;;;;;5.43;100.00;101500.88;5053236;28;19940;-67
2021/03/19 11:19:14;;;;;;;;;;;;;;;5.24;100.00;101508.94;5052928;28;19928;-67
2021/03/19 11:21:41;;;;;;;;;;;;;;;4.72;100.00;101509.47;5053320;28;19928;-67
2021/03/19 11:24:21;;;;;;;;;;;;;;;4.28;100.00;101504.22;5035720;28;19931;-67
2021/03/19 11:26:59;;;;;;;;;;;;;;;4.41;100.00;101516.19;5033879;28;19970;-67
2021/03/19 11:29:27;;;;;;;;;;;;;;;4.46;100.00;101508.81;5034949;28;19925;-67
2021/03/19 11:32:10;;;;;;;;;;;;;;;4.59;100.00;101519.91;5072224;28;19985;-67
2021/03/19 11:34:38;;;;;;;;;;;;;;;4.42;100.00;101515.25;5059722;28;19947;-67
2021/03/19 11:37:06;;;;;;;;;;;;;;;4.36;100.00;101504.78;5073046;28;19939;-68
2021/03/19 11:39:35;;;;;;;;;;;;;;;4.21;100.00;101505.41;5073365;28;20029;-68
2021/03/19 11:42:03;;;;;;;;;;;;;;;4.47;100.00;101510.53;5072443;28;19925;-68
2021/03/19 11:44:29;;;;;;;;;;;;;;;5.06;100.00;101515.16;5071726;28;19924;-68
2021/03/19 11:46:57;;;;;;;;;;;;;;;6.11;100.00;101511.09;5073253;28;19932;-68
2021/03/19 11:49:23;;;;;;;;;;;;;;;6.45;100.00;101506.66;5072902;28;19925;-69
2021/03/19 11:51:48;;;;;;;;;;;;;;;7.53;100.00;101500.88;5072925;28;20121;-68
2021/03/19 11:54:14;;;;;;;;;;;;;;;6.83;98.73;101501.09;5073075;28;19932;-68
2021/03/19 11:56:40;;;;;;;;;;;;;;;5.96;97.33;101504.63;5073055;28;19977;-68
2021/03/19 11:59:10;;;;;;;;;;;;;;;5.22;97.70;101510.81;5072466;28;19929;-68
2021/03/19 12:01:36;;;;;;;;;;;;;;;4.82;100.00;101502.75;5072230;28;19924;-68
2021/03/19 12:04:02;;;;;;;;;;;;;;;4.71;100.00;101512.25;5072815;28;19981;-68
2021/03/19 12:06:29;;;;;;;;;;;;;;;4.80;100.00;101510.00;5072619;28;19925;-68
2021/03/19 12:08:56;;;;;;;;;;;;;;;4.74;100.00;101509.41;5072438;28;19932;-68
2021/03/19 12:11:25;;;;;;;;;;;;;;;4.32;100.00;101503.16;5071888;28;20134;-68
2021/03/19 12:13:51;;;;;;;;;;;;;;;4.26;100.00;101517.72;5072355;28;19925;-68
2021/03/19 12:16:18;;;;;;;;;;;;;;;3.91;100.00;101528.09;5053933;28;19925;-68
2021/03/19 12:18:44;;;;;;;;;;;;;;;3.89;100.00;101530.00;5072127;28;19963;-68
2021/03/19 12:21:10;;;;;;;;;;;;;;;4.25;100.00;101531.22;5071722;28;20004;-68
2021/03/19 12:23:36;;;;;;;;;;;;;;;4.61;100.00;101533.28;5037744;28;19931;-68
2021/03/19 12:26:02;;;;;;;;;;;;;;;4.68;100.00;101534.78;5054266;28;20408;-68
2021/03/19 12:28:28;;;;;;;;;;;;;;;4.61;100.00;101536.84;5071808;28;19925;-68
2021/03/19 12:30:54;;;;;;;;;;;;;;;4.76;100.00;101546.06;5064811;28;19994;-67
2021/03/19 12:33:22;;;;;;;;;;;;;;;4.77;100.00;101539.75;5057324;28;19925;-67
2021/03/19 12:35:48;;;;;;;;;;;;;;;4.33;100.00;101524.59;5051666;28;20420;-68
2021/03/19 12:38:15;;;;;;;;;;;;;;;4.64;100.00;101534.03;5050185;28;19971;-68
2021/03/19 12:40:42;;;;;;;;;;;;;;;4.57;100.00;101537.03;5038246;28;19925;-68
2021/03/19 12:43:08;;;;;;;;;;;;;;;4.98;100.00;101523.56;5071898;28;19928;-68
2021/03/19 12:45:34;;;;;;;;;;;;;;;6.24;100.00;101513.16;5068394;28;19932;-69
2021/03/19 12:48:00;;;;;;;;;;;;;;;7.69;95.97;101510.84;5051392;28;19932;-68
2021/03/19 12:50:28;;;;;;;;;;;;;;;7.45;83.07;101507.69;5052953;28;19931;-68
2021/03/19 12:52:54;;;;;;;;;;;;;;;7.32;83.72;101512.91;5071531;28;19928;-68
2021/03/19 12:55:20;;;;;;;;;;;;;;;6.84;83.38;101518.16;5071074;28;19925;-68
2021/03/19 12:57:46;;;;;;;;;;;;;;;5.83;86.42;101520.50;5034231;28;19925;-68
2021/03/19 13:00:16;;;;;;;;;;;;;;;5.43;93.23;101537.72;5051540;28;19936;-68